Time;durP1;ratioP1;P1;durP2;ratioP2;P2;SDS_P1;SDS_P2;PMS_P1;PMS_P2;Temp;Humidity;BMP_temperature;BMP_pressure;BME280_temperature;BME280_humidity;BME280_pressure;Samples;Min_cycle;Max_cycle;Signal;HPM_P1;HPM_P2
2023/08/30 00:01:35;;;;;;;11.55;10.55;;;15.20;99.90;;;;;;5032309;28;20095;-80
2023/08/30 00:04:00;;;;;;;12.65;11.43;;;14.10;99.90;;;;;;5043685;28;20409;-81
2023/08/30 00:06:26;;;;;;;12.15;10.95;;;14.00;99.90;;;;;;5043969;28;20080;-81
2023/08/30 00:08:51;;;;;;;12.20;11.07;;;14.00;99.90;;;;;;5029022;28;20414;-81
2023/08/30 00:11:17;;;;;;;12.07;10.98;;;14.20;99.90;;;;;;5032588;28;20044;-82
2023/08/30 00:13:43;;;;;;;11.38;10.27;;;13.90;99.90;;;;;;5035451;28;20485;-81
2023/08/30 00:16:08;;;;;;;11.82;10.93;;;14.00;99.90;;;;;;5033328;28;20560;-82
2023/08/30 00:18:34;;;;;;;11.75;10.68;;;14.00;99.90;;;;;;5044388;28;20042;-81
2023/08/30 00:20:59;;;;;;;11.82;10.77;;;13.90;99.90;;;;;;5043063;28;20041;-81
2023/08/30 00:23:25;;;;;;;11.30;10.40;;;13.90;99.90;;;;;;5038954;28;20037;-82
2023/08/30 00:25:51;;;;;;;11.85;10.75;;;14.40;99.90;;;;;;5044843;28;20508;-81
2023/08/30 00:28:17;;;;;;;10.70;9.80;;;13.90;99.90;;;;;;5041858;28;20132;-82
2023/08/30 00:30:42;;;;;;;10.30;9.50;;;13.90;99.90;;;;;;5041028;28;20044;-81
2023/08/30 00:33:08;;;;;;;12.02;10.93;;;13.90;99.90;;;;;;5049458;28;20052;-81
2023/08/30 00:35:33;;;;;;;11.00;10.07;;;13.80;99.90;;;;;;5034774;28;20048;-82
2023/08/30 00:37:59;;;;;;;10.73;9.75;;;13.80;99.90;;;;;;5045581;28;20041;-81
2023/08/30 00:40:25;;;;;;;10.85;9.95;;;13.80;99.90;;;;;;5045929;28;20045;-81
2023/08/30 00:42:51;;;;;;;10.30;9.43;;;13.80;99.90;;;;;;5042421;28;20045;-81
2023/08/30 00:45:17;;;;;;;11.00;9.88;;;13.80;99.90;;;;;;5033768;28;20061;-81
2023/08/30 00:47:43;;;;;;;10.55;9.18;;;13.50;99.90;;;;;;5050538;28;20045;-82
2023/08/30 00:50:09;;;;;;;11.00;9.65;;;13.70;99.90;;;;;;5017965;28;20056;-82
2023/08/30 00:52:35;;;;;;;12.30;9.88;;;13.70;99.90;;;;;;5035307;28;20048;-81
2023/08/30 00:55:01;;;;;;;10.75;9.68;;;13.70;99.90;;;;;;5034187;28;20056;-81
2023/08/30 00:57:27;;;;;;;9.82;8.95;;;13.70;99.90;;;;;;5049182;28;20045;-81
2023/08/30 00:59:54;;;;;;;10.05;9.07;;;13.70;99.90;;;;;;5009864;28;20041;-81
2023/08/30 01:02:19;;;;;;;10.25;9.32;;;13.70;99.90;;;;;;5044645;28;20049;-81
2023/08/30 01:04:45;;;;;;;10.45;9.40;;;13.70;99.90;;;;;;5052115;28;20095;-81
2023/08/30 01:07:11;;;;;;;11.60;10.50;;;13.60;99.90;;;;;;5051573;28;20045;-81
2023/08/30 01:09:37;;;;;;;10.32;9.32;;;13.60;99.90;;;;;;5045612;28;20092;-81
2023/08/30 01:12:43;;;;;;;10.43;9.50;;;13.70;99.90;;;;;;5033728;28;20063;-81
2023/08/30 01:15:19;;;;;;;11.35;10.25;;;13.60;99.90;;;;;;5037770;28;20093;-81
2023/08/30 01:17:47;;;;;;;10.23;9.23;;;13.60;99.90;;;;;;5028068;28;20413;-81
2023/08/30 01:20:18;;;;;;;10.07;8.93;;;14.70;99.90;;;;;;5027356;28;20132;-82
2023/08/30 01:22:49;;;;;;;11.65;9.65;;;13.60;99.90;;;;;;5034619;28;20037;-81
2023/08/30 01:25:15;;;;;;;10.15;9.13;;;13.50;99.90;;;;;;5045206;28;20048;-82
2023/08/30 01:27:43;;;;;;;10.10;9.15;;;13.60;99.90;;;;;;5035638;28;20053;-81
2023/08/30 01:30:10;;;;;;;10.07;9.18;;;13.50;99.90;;;;;;5035374;28;20073;-82
2023/08/30 01:32:37;;;;;;;10.50;9.60;;;13.80;99.90;;;;;;5032623;28;20045;-82
2023/08/30 01:35:05;;;;;;;9.55;8.75;;;13.60;99.90;;;;;;5051722;28;20087;-81
2023/08/30 01:37:32;;;;;;;10.45;9.52;;;13.50;99.90;;;;;;5050063;28;20073;-80
2023/08/30 01:39:59;;;;;;;11.30;9.90;;;13.40;99.90;;;;;;5043487;28;20045;-81
2023/08/30 01:42:26;;;;;;;10.50;9.50;;;13.40;99.90;;;;;;5033968;28;20481;-81
2023/08/30 01:44:57;;;;;;;12.38;10.85;;;13.40;99.90;;;;;;5016140;28;20048;-82
2023/08/30 01:47:24;;;;;;;10.52;9.52;;;13.40;99.90;;;;;;5032956;28;20095;-82
2023/08/30 01:49:50;;;;;;;10.75;9.68;;;13.40;99.90;;;;;;5041082;28;20040;-81
2023/08/30 01:52:17;;;;;;;10.65;9.63;;;13.40;99.90;;;;;;5051124;28;20051;-81
2023/08/30 01:54:44;;;;;;;10.73;9.63;;;13.40;99.90;;;;;;5049654;28;20083;-81
2023/08/30 01:57:09;;;;;;;10.77;9.88;;;13.40;99.90;;;;;;5033497;28;20095;-81
2023/08/30 01:59:35;;;;;;;11.48;10.30;;;13.40;99.90;;;;;;5050637;28;20045;-81
2023/08/30 02:02:00;;;;;;;12.60;10.35;;;13.40;99.90;;;;;;5053785;28;20071;-81
2023/08/30 02:04:27;;;;;;;11.13;10.00;;;13.40;99.90;;;;;;5042434;28;20129;-81
2023/08/30 02:07:03;;;;;;;11.82;10.65;;;13.40;99.90;;;;;;5047410;28;20104;-80
2023/08/30 02:09:42;;;;;;;10.75;9.75;;;13.40;99.90;;;;;;5043492;28;20044;-81
2023/08/30 02:12:13;;;;;;;11.52;10.38;;;14.40;99.90;;;;;;5041276;28;20045;-81
2023/08/30 02:14:41;;;;;;;11.40;10.30;;;13.40;99.90;;;;;;5039719;28;20069;-81
2023/08/30 02:17:08;;;;;;;10.88;9.88;;;13.40;99.90;;;;;;5033280;28;20088;-81
2023/08/30 02:19:34;;;;;;;11.23;10.23;;;13.30;99.90;;;;;;5032727;28;20048;-81
2023/08/30 02:22:00;;;;;;;12.43;10.27;;;13.40;99.90;;;;;;5050613;28;20036;-82
2023/08/30 02:24:25;;;;;;;10.95;9.85;;;14.00;99.90;;;;;;5043974;28;20045;-81
2023/08/30 02:26:51;;;;;;;10.70;9.75;;;13.30;99.90;;;;;;5032055;28;20053;-82
2023/08/30 02:29:16;;;;;;;10.93;9.90;;;13.30;99.90;;;;;;5050243;28;20052;-81
2023/08/30 02:31:42;;;;;;;11.73;10.13;;;13.30;99.90;;;;;;5050562;28;20052;-81
2023/08/30 02:34:08;;;;;;;13.38;9.95;;;13.30;99.90;;;;;;5050182;28;20460;-81
2023/08/30 02:36:33;;;;;;;10.55;9.75;;;13.30;99.90;;;;;;5050246;28;20064;-81
2023/08/30 02:38:59;;;;;;;10.98;9.73;;;13.30;99.90;;;;;;5032677;28;20492;-81
2023/08/30 02:41:24;;;;;;;10.68;9.55;;;13.30;99.90;;;;;;5051038;28;20048;-81
2023/08/30 02:43:50;;;;;;;10.68;9.68;;;13.30;99.90;;;;;;5041782;28;20044;-81
2023/08/30 02:46:16;;;;;;;10.30;8.98;;;13.30;99.90;;;;;;5035334;28;20044;-80
2023/08/30 02:48:41;;;;;;;9.85;8.85;;;13.30;99.90;;;;;;5047345;28;20517;-81
2023/08/30 02:51:07;;;;;;;12.68;9.80;;;13.20;99.90;;;;;;5043094;28;20611;-81
2023/08/30 02:53:33;;;;;;;10.55;9.55;;;13.20;99.90;;;;;;5045876;28;20036;-81
2023/08/30 02:55:58;;;;;;;9.82;8.93;;;13.20;99.90;;;;;;5048951;28;20189;-82
2023/08/30 02:58:24;;;;;;;11.20;8.82;;;13.40;99.90;;;;;;5045995;28;20087;-81
2023/08/30 03:00:50;;;;;;;8.77;7.97;;;13.20;99.90;;;;;;5031257;28;20036;-82
2023/08/30 03:03:15;;;;;;;10.20;8.02;;;13.20;99.90;;;;;;5046855;28;20041;-80
2023/08/30 03:05:41;;;;;;;9.65;8.65;;;14.20;99.90;;;;;;5039390;28;20041;-81
2023/08/30 03:08:06;;;;;;;10.18;8.52;;;13.10;99.90;;;;;;5029718;28;20048;-81
2023/08/30 03:10:32;;;;;;;9.32;8.45;;;13.10;99.90;;;;;;5045550;28;20043;-81
2023/08/30 03:12:58;;;;;;;11.77;7.70;;;13.10;99.90;;;;;;5039937;28;20099;-81
2023/08/30 03:15:23;;;;;;;9.02;8.07;;;12.20;99.90;;;;;;5050012;28;20036;-81
2023/08/30 03:17:49;;;;;;;9.77;8.65;;;13.10;99.90;;;;;;5048769;28;20405;-81
2023/08/30 03:20:15;;;;;;;8.95;8.05;;;13.10;99.90;;;;;;5050446;28;20036;-81
2023/08/30 03:22:41;;;;;;;9.10;8.18;;;13.10;99.90;;;;;;5043763;28;20071;-80
2023/08/30 03:25:09;;;;;;;9.15;8.15;;;13.00;99.90;;;;;;5046448;28;20033;-81
2023/08/30 03:27:35;;;;;;;9.05;8.20;;;13.00;99.90;;;;;;5027883;28;20091;-81
2023/08/30 03:30:01;;;;;;;12.02;8.40;;;13.00;99.90;;;;;;5039235;28;20420;-81
2023/08/30 03:32:27;;;;;;;7.85;7.18;;;12.90;99.90;;;;;;5028499;28;20053;-81
2023/08/30 03:34:53;;;;;;;8.65;7.75;;;12.90;99.90;;;;;;5026516;28;20037;-81
2023/08/30 03:37:18;;;;;;;10.00;8.27;;;12.90;99.90;;;;;;5029809;28;20046;-80
2023/08/30 03:39:44;;;;;;;11.05;8.45;;;12.90;99.90;;;;;;5028978;28;20044;-81
2023/08/30 03:42:09;;;;;;;8.55;7.75;;;12.80;99.90;;;;;;5030099;28;20045;-81
2023/08/30 03:44:37;;;;;;;9.75;8.85;;;12.90;99.90;;;;;;5023070;28;20045;-81
2023/08/30 03:47:02;;;;;;;9.55;8.65;;;12.80;99.90;;;;;;5026716;28;20041;-81
2023/08/30 03:49:29;;;;;;;9.00;8.15;;;12.80;99.90;;;;;;5024874;28;20054;-81
2023/08/30 03:51:55;;;;;;;9.23;8.32;;;12.30;99.90;;;;;;5028968;28;20124;-80
2023/08/30 03:54:20;;;;;;;10.48;8.60;;;12.80;99.90;;;;;;5014991;28;20117;-81
2023/08/30 03:56:46;;;;;;;10.40;9.40;;;12.80;99.90;;;;;;5016052;28;20187;-80
2023/08/30 03:59:12;;;;;;;9.98;8.88;;;12.80;99.90;;;;;;5026492;28;20053;-82
2023/08/30 04:01:38;;;;;;;9.23;8.38;;;13.50;99.90;;;;;;5021155;28;20053;-81
2023/08/30 04:04:04;;;;;;;13.02;9.25;;;12.80;99.90;;;;;;5028094;28;20497;-81
2023/08/30 04:06:30;;;;;;;11.15;9.90;;;12.70;99.90;;;;;;5028704;28;20045;-80
2023/08/30 04:08:56;;;;;;;10.05;9.02;;;13.00;99.90;;;;;;5033713;28;20503;-81
2023/08/30 04:11:22;;;;;;;10.20;9.27;;;12.70;99.90;;;;;;5019470;28;20040;-80
2023/08/30 04:13:49;;;;;;;10.40;9.38;;;12.80;99.90;;;;;;5024383;28;20049;-81
2023/08/30 04:16:14;;;;;;;10.75;9.63;;;12.80;99.90;;;;;;5003666;28;20104;-80
2023/08/30 04:18:40;;;;;;;10.93;9.85;;;12.80;99.90;;;;;;5025777;28;20050;-81
2023/08/30 04:21:08;;;;;;;12.02;9.32;;;13.00;99.90;;;;;;5017123;28;20129;-81
2023/08/30 04:23:34;;;;;;;10.98;9.88;;;12.80;99.90;;;;;;5004107;28;20068;-81
2023/08/30 04:25:59;;;;;;;11.95;9.75;;;12.70;99.90;;;;;;5025761;28;20461;-80
2023/08/30 04:28:26;;;;;;;10.70;9.65;;;12.70;99.90;;;;;;5027156;28;20096;-80
2023/08/30 04:30:56;;;;;;;10.70;9.60;;;12.70;99.90;;;;;;5025216;28;20126;-82
2023/08/30 04:33:23;;;;;;;11.20;10.13;;;12.80;99.90;;;;;;5051206;28;20087;-80
2023/08/30 04:35:55;;;;;;;11.18;10.07;;;12.80;99.90;;;;;;5046131;28;20040;-82
2023/08/30 04:38:24;;;;;;;11.60;10.57;;;12.80;99.90;;;;;;5041396;28;20103;-82
2023/08/30 04:40:49;;;;;;;10.48;8.88;;;12.80;99.90;;;;;;5051844;28;20025;-81
2023/08/30 04:43:15;;;;;;;10.13;9.23;;;13.90;99.90;;;;;;5035839;28;20040;-80
2023/08/30 04:45:41;;;;;;;14.05;9.35;;;12.70;99.90;;;;;;5058775;28;20045;-81
2023/08/30 04:48:09;;;;;;;12.20;10.15;;;12.70;99.90;;;;;;5053007;28;20056;-81
2023/08/30 04:50:35;;;;;;;10.13;8.77;;;12.70;99.90;;;;;;5050753;28;20087;-82
2023/08/30 04:53:01;;;;;;;10.68;9.57;;;12.80;99.90;;;;;;5056392;28;20053;-81
2023/08/30 04:55:29;;;;;;;10.60;9.13;;;13.70;99.90;;;;;;5037619;28;20090;-82
2023/08/30 04:57:55;;;;;;;11.60;10.02;;;13.20;99.90;;;;;;5049563;28;20087;-80
2023/08/30 05:00:21;;;;;;;10.43;8.95;;;12.80;99.90;;;;;;5055792;28;20132;-82
2023/08/30 05:02:46;;;;;;;11.02;9.35;;;12.90;99.90;;;;;;5035074;28;20130;-80
2023/08/30 05:05:13;;;;;;;9.43;8.48;;;13.90;99.90;;;;;;5051187;28;20051;-80
2023/08/30 05:07:38;;;;;;;11.63;9.38;;;12.80;99.90;;;;;;5045989;28;20036;-81
2023/08/30 05:10:06;;;;;;;10.90;9.27;;;13.30;99.90;;;;;;5033462;28;20389;-80
2023/08/30 05:12:36;;;;;;;9.95;8.95;;;12.80;99.90;;;;;;5027821;28;20043;-81
2023/08/30 05:15:01;;;;;;;11.82;8.68;;;12.90;99.90;;;;;;5047421;28;20052;-81
2023/08/30 05:17:28;;;;;;;10.75;8.75;;;12.90;99.90;;;;;;5031166;28;20041;-82
2023/08/30 05:19:54;;;;;;;9.38;8.48;;;12.90;99.90;;;;;;5051785;28;20068;-82
2023/08/30 05:22:20;;;;;;;10.50;9.10;;;14.20;99.90;;;;;;5050350;28;20686;-82
2023/08/30 05:24:46;;;;;;;12.70;9.48;;;12.90;99.90;;;;;;5046030;28;20037;-81
2023/08/30 05:27:12;;;;;;;12.13;9.68;;;12.90;99.90;;;;;;5049639;28;20041;-82
2023/08/30 05:29:38;;;;;;;10.85;9.27;;;12.90;99.90;;;;;;5052775;28;20041;-82
2023/08/30 05:32:04;;;;;;;11.35;9.52;;;12.90;99.90;;;;;;5050577;28;20063;-82
2023/08/30 05:34:31;;;;;;;16.25;12.30;;;12.90;99.90;;;;;;5034582;28;20076;-82
2023/08/30 05:36:56;;;;;;;17.10;14.32;;;12.90;99.90;;;;;;5035228;28;20108;-82
2023/08/30 05:39:22;;;;;;;10.73;9.63;;;12.90;99.90;;;;;;5054487;28;20068;-81
2023/08/30 05:41:47;;;;;;;10.65;9.57;;;12.90;99.90;;;;;;5057317;28;20037;-81
2023/08/30 05:44:13;;;;;;;9.73;8.73;;;13.00;99.90;;;;;;5032507;28;20055;-82
2023/08/30 05:46:39;;;;;;;9.85;8.73;;;13.00;99.90;;;;;;5046529;28;20091;-82
2023/08/30 05:49:05;;;;;;;10.20;9.18;;;14.10;99.90;;;;;;5050085;28;20124;-81
2023/08/30 05:51:30;;;;;;;10.27;9.27;;;13.00;99.90;;;;;;5049974;28;20040;-81
2023/08/30 05:53:56;;;;;;;10.15;8.77;;;13.00;99.90;;;;;;5047243;28;20392;-80
2023/08/30 05:56:21;;;;;;;9.60;8.68;;;13.00;99.90;;;;;;5039274;28;20045;-80
2023/08/30 05:58:47;;;;;;;12.80;9.20;;;13.50;99.90;;;;;;5050892;28;20249;-81
2023/08/30 06:01:14;;;;;;;10.25;8.80;;;13.10;99.90;;;;;;5044688;28;20037;-81
2023/08/30 06:03:39;;;;;;;10.65;8.27;;;13.40;99.90;;;;;;5047811;28;20071;-80
2023/08/30 06:06:06;;;;;;;10.40;8.38;;;13.10;99.90;;;;;;5015016;28;20125;-81
2023/08/30 06:08:31;;;;;;;9.80;8.10;;;13.10;99.90;;;;;;5045303;28;20047;-80
2023/08/30 06:10:57;;;;;;;10.85;8.38;;;13.20;99.90;;;;;;5024545;28;21198;-80
2023/08/30 06:13:23;;;;;;;10.63;8.23;;;13.20;99.90;;;;;;5042928;28;20036;-80
2023/08/30 06:15:52;;;;;;;10.60;9.27;;;13.70;99.90;;;;;;5040078;28;20041;-80
2023/08/30 06:18:18;;;;;;;11.15;9.45;;;13.30;99.90;;;;;;5040746;28;20106;-80
2023/08/30 06:20:44;;;;;;;9.52;8.32;;;13.30;99.90;;;;;;5041290;28;20496;-80
2023/08/30 06:23:11;;;;;;;10.00;9.10;;;14.50;99.90;;;;;;4347343;28;10000812;-79
2023/08/30 06:25:36;;;;;;;11.02;9.70;;;13.40;99.90;;;;;;5047948;28;20041;-79
2023/08/30 06:28:03;;;;;;;10.80;8.95;;;13.60;99.90;;;;;;5025563;28;20091;-81
2023/08/30 06:30:32;;;;;;;11.18;9.35;;;13.40;99.90;;;;;;5030717;28;20130;-81
2023/08/30 06:32:58;;;;;;;10.88;9.15;;;13.40;99.90;;;;;;5040343;28;20084;-80
2023/08/30 06:35:24;;;;;;;14.20;9.88;;;13.40;99.90;;;;;;5047296;28;20400;-80
2023/08/30 06:37:50;;;;;;;13.18;9.93;;;13.50;99.90;;;;;;5030127;28;20041;-80
2023/08/30 06:40:16;;;;;;;11.82;9.30;;;13.50;99.90;;;;;;5039235;28;20041;-79
2023/08/30 06:42:42;;;;;;;12.13;10.13;;;13.50;99.90;;;;;;5024512;28;20044;-80
2023/08/30 06:45:08;;;;;;;11.60;9.63;;;13.50;99.90;;;;;;5044738;28;20094;-80
2023/08/30 06:47:34;;;;;;;13.07;9.60;;;13.50;99.90;;;;;;5046562;28;20044;-80
2023/08/30 06:50:00;;;;;;;13.27;9.60;;;13.50;99.90;;;;;;5040462;28;20057;-77
2023/08/30 06:52:26;;;;;;;10.80;8.27;;;13.50;99.90;;;;;;5045355;28;20401;-81
2023/08/30 06:54:52;;;;;;;11.30;9.32;;;13.50;99.90;;;;;;5029350;28;20662;-81
2023/08/30 06:57:18;;;;;;;9.70;8.80;;;14.80;99.90;;;;;;5027724;28;20803;-82
2023/08/30 06:59:44;;;;;;;15.40;9.73;;;13.50;99.90;;;;;;5048244;28;20045;-83
2023/08/30 07:02:09;;;;;;;12.07;9.15;;;15.00;99.90;;;;;;5046378;28;20037;-82
2023/08/30 07:04:35;;;;;;;11.02;9.15;;;13.60;99.90;;;;;;5045333;28;20116;-81
2023/08/30 07:07:01;;;;;;;11.82;8.82;;;13.60;99.90;;;;;;5047983;28;20690;-80
2023/08/30 07:09:29;;;;;;;10.93;8.68;;;13.60;99.90;;;;;;5038415;28;20034;-82
2023/08/30 07:11:55;;;;;;;9.68;8.52;;;13.70;99.90;;;;;;5044046;28;20037;-82
2023/08/30 07:14:21;;;;;;;9.57;7.63;;;13.70;99.90;;;;;;5047608;28;20040;-82
2023/08/30 07:16:49;;;;;;;10.93;8.77;;;14.10;99.90;;;;;;5040640;28;20385;-82
2023/08/30 07:19:15;;;;;;;10.95;8.65;;;13.70;99.90;;;;;;5044264;28;20574;-82
2023/08/30 07:21:44;;;;;;;13.18;9.15;;;13.80;99.90;;;;;;5040194;28;20037;-80
2023/08/30 07:24:11;;;;;;;14.32;8.85;;;13.80;99.90;;;;;;5044438;28;20130;-82
2023/08/30 07:26:37;;;;;;;12.77;9.15;;;13.80;99.90;;;;;;5048428;28;20045;-81
2023/08/30 07:29:06;;;;;;;13.35;8.27;;;13.90;99.90;;;;;;5052139;28;20037;-83
2023/08/30 07:31:33;;;;;;;10.60;8.50;;;13.90;99.90;;;;;;5046682;28;20581;-80
2023/08/30 07:33:59;;;;;;;9.32;8.23;;;14.00;99.90;;;;;;5045491;28;20055;-81
2023/08/30 07:36:26;;;;;;;9.73;7.82;;;14.00;99.90;;;;;;5047920;28;20045;-80
2023/08/30 07:38:52;;;;;;;10.40;7.65;;;14.10;99.90;;;;;;5046931;28;20041;-83
2023/08/30 07:41:17;;;;;;;15.20;8.23;;;14.80;99.90;;;;;;5040949;28;20413;-81
2023/08/30 07:43:43;;;;;;;8.45;7.57;;;15.30;99.90;;;;;;5030508;28;20087;-79
2023/08/30 07:46:09;;;;;;;13.02;7.22;;;14.50;99.90;;;;;;5039375;28;20041;-79
2023/08/30 07:48:34;;;;;;;8.18;7.32;;;14.50;99.90;;;;;;5046813;28;20098;-79
2023/08/30 07:51:00;;;;;;;10.65;7.63;;;14.50;99.90;;;;;;5047605;28;20116;-79
2023/08/30 07:53:25;;;;;;;11.45;7.90;;;14.50;99.90;;;;;;5046775;28;20040;-78
2023/08/30 07:55:51;;;;;;;12.85;7.57;;;14.50;99.90;;;;;;5037764;28;20091;-78
2023/08/30 07:58:17;;;;;;;10.05;8.30;;;14.60;99.90;;;;;;5022798;28;20381;-77
2023/08/30 08:00:43;;;;;;;15.15;8.43;;;14.70;99.90;;;;;;5040262;28;20388;-79
2023/08/30 08:03:09;;;;;;;10.13;8.57;;;15.60;99.90;;;;;;5041728;28;20095;-79
2023/08/30 08:05:36;;;;;;;12.45;8.23;;;14.80;99.90;;;;;;5039309;28;22154;-80
2023/08/30 08:08:02;;;;;;;11.75;9.20;;;14.90;99.90;;;;;;5006260;28;20037;-80
2023/08/30 08:10:32;;;;;;;13.48;8.52;;;14.90;99.90;;;;;;5039688;28;20443;-80
2023/08/30 08:12:58;;;;;;;9.70;8.38;;;14.90;99.90;;;;;;5046236;28;20512;-81
2023/08/30 08:15:24;;;;;;;11.57;8.85;;;14.90;99.90;;;;;;5048639;28;20049;-86
2023/08/30 08:17:58;;;;;;;10.93;8.75;;;15.00;99.90;;;;;;5045131;28;20037;-86
2023/08/30 08:20:28;;;;;;;13.07;9.05;;;14.90;99.90;;;;;;5034695;28;20048;-84
2023/08/30 08:22:54;;;;;;;12.00;8.95;;;15.00;99.90;;;;;;5042137;28;20045;-85
2023/08/30 08:25:20;;;;;;;14.95;8.93;;;15.00;99.90;;;;;;5043184;28;20038;-86
2023/08/30 08:27:46;;;;;;;12.05;8.75;;;15.90;99.90;;;;;;5043438;28;20041;-85
2023/08/30 08:30:12;;;;;;;9.70;8.25;;;15.90;99.90;;;;;;5051952;28;20536;-86
2023/08/30 08:32:38;;;;;;;12.60;8.60;;;15.00;99.90;;;;;;5044541;28;20048;-86
2023/08/30 08:35:04;;;;;;;10.82;9.00;;;15.20;99.90;;;;;;5041947;28;20123;-86
2023/08/30 08:37:31;;;;;;;16.58;9.70;;;15.10;99.90;;;;;;5035244;28;20099;-87
2023/08/30 08:39:56;;;;;;;11.30;8.73;;;15.10;99.90;;;;;;5035134;28;20041;-86
2023/08/30 08:42:22;;;;;;;9.65;7.78;;;15.20;99.90;;;;;;5018057;28;20105;-86
2023/08/30 08:44:51;;;;;;;10.23;8.00;;;15.20;99.90;;;;;;5044520;28;20049;-86
2023/08/30 08:47:20;;;;;;;10.73;8.60;;;15.20;99.90;;;;;;5035644;28;20087;-87
2023/08/30 08:49:47;;;;;;;10.48;8.93;;;15.20;99.90;;;;;;5043352;28;20482;-86
2023/08/30 08:52:15;;;;;;;13.13;8.75;;;15.90;99.90;;;;;;5053397;28;20124;-86
2023/08/30 08:54:40;;;;;;;9.65;7.32;;;15.20;99.90;;;;;;5052395;28;20412;-86
2023/08/30 08:57:09;;;;;;;12.48;7.35;;;15.20;99.90;;;;;;5045496;28;20029;-90
2023/08/30 08:59:35;;;;;;;10.30;7.53;;;15.20;99.90;;;;;;5045016;28;20114;-83
2023/08/30 09:02:02;;;;;;;9.20;7.53;;;15.20;99.90;;;;;;5039981;28;20416;-84
2023/08/30 09:04:31;;;;;;;9.55;7.40;;;15.20;99.90;;;;;;5041842;28;20064;-85
2023/08/30 09:06:59;;;;;;;10.93;8.38;;;16.10;99.90;;;;;;5043728;28;20060;-82
2023/08/30 09:09:25;;;;;;;8.63;7.13;;;15.20;99.90;;;;;;5036536;28;20051;-84
2023/08/30 09:11:50;;;;;;;10.93;7.00;;;15.20;99.90;;;;;;5018372;28;20041;-85
2023/08/30 09:14:16;;;;;;;9.80;7.15;;;15.60;99.90;;;;;;5052500;28;20048;-81
2023/08/30 09:16:42;;;;;;;12.05;7.97;;;16.30;99.90;;;;;;5049539;28;20041;-84
2023/08/30 09:19:10;;;;;;;9.38;7.10;;;15.40;99.90;;;;;;5046316;28;20041;-83
2023/08/30 09:21:36;;;;;;;8.80;7.78;;;15.20;99.90;;;;;;5049053;28;20033;-83
2023/08/30 09:24:03;;;;;;;8.15;6.97;;;16.70;99.90;;;;;;5049075;28;20352;-82
2023/08/30 09:26:34;;;;;;;8.73;7.68;;;15.20;99.90;;;;;;5032059;28;20037;-84
2023/08/30 09:29:04;;;;;;;10.32;8.15;;;15.20;99.90;;;;;;5046646;28;20136;-83
2023/08/30 09:31:34;;;;;;;10.75;7.90;;;15.20;99.90;;;;;;5048872;28;20055;-83
2023/08/30 09:34:01;;;;;;;11.32;8.40;;;15.90;99.90;;;;;;5050235;28;20128;-84
2023/08/30 09:36:33;;;;;;;12.18;8.48;;;16.30;99.90;;;;;;5029814;28;20049;-83
2023/08/30 09:38:58;;;;;;;13.02;7.65;;;15.20;99.90;;;;;;5049367;28;20124;-83
2023/08/30 09:41:25;;;;;;;12.07;8.38;;;15.60;99.90;;;;;;5050496;28;20123;-85
2023/08/30 09:43:50;;;;;;;10.70;8.55;;;15.20;99.90;;;;;;5047861;28;20047;-83
2023/08/30 09:46:16;;;;;;;8.35;7.47;;;15.30;99.90;;;;;;5048846;28;20044;-82
2023/08/30 09:48:43;;;;;;;10.07;8.40;;;15.90;99.90;;;;;;5048775;28;20389;-83
2023/08/30 09:51:10;;;;;;;10.70;8.52;;;15.30;99.90;;;;;;5044160;28;20059;-83
2023/08/30 09:53:42;;;;;;;8.60;7.55;;;15.80;99.90;;;;;;5049875;28;20040;-84
2023/08/30 09:56:10;;;;;;;11.48;7.82;;;15.30;99.90;;;;;;5049355;28;20132;-83
2023/08/30 09:58:36;;;;;;;10.68;6.60;;;15.30;99.90;;;;;;5045782;28;20127;-83
2023/08/30 10:01:02;;;;;;;7.57;6.63;;;16.00;99.90;;;;;;5031099;28;20091;-83
2023/08/30 10:03:30;;;;;;;8.68;6.82;;;15.30;99.90;;;;;;5050142;28;20040;-82
2023/08/30 10:05:58;;;;;;;9.38;6.72;;;15.40;99.90;;;;;;5042809;28;20082;-82
2023/08/30 10:08:30;;;;;;;6.20;5.20;;;15.40;99.90;;;;;;5049355;28;20043;-81
2023/08/30 10:10:58;;;;;;;6.43;5.22;;;15.50;99.90;;;;;;5049224;28;20068;-83
2023/08/30 10:13:25;;;;;;;7.25;5.53;;;15.50;99.90;;;;;;5049249;28;20421;-88
2023/08/30 10:15:56;;;;;;;9.88;5.45;;;15.40;99.90;;;;;;5032100;28;20037;-87
2023/08/30 10:18:26;;;;;;;6.07;5.47;;;15.80;99.90;;;;;;5050229;28;20045;-85
2023/08/30 10:20:55;;;;;;;10.35;5.90;;;15.50;99.90;;;;;;5031416;28;20493;-86
2023/08/30 10:23:22;;;;;;;6.10;4.90;;;15.70;99.90;;;;;;5048442;28;20059;-86
2023/08/30 10:25:50;;;;;;;5.53;4.65;;;15.50;99.90;;;;;;5048663;28;20045;-85
2023/08/30 10:28:17;;;;;;;7.40;5.35;;;15.80;99.90;;;;;;5047173;28;20489;-84
2023/08/30 10:30:43;;;;;;;7.40;5.25;;;15.50;99.90;;;;;;5049642;28;20037;-86
2023/08/30 10:33:17;;;;;;;6.53;5.05;;;15.60;99.90;;;;;;5049043;28;20049;-86
2023/08/30 10:35:51;;;;;;;8.32;6.18;;;15.60;99.90;;;;;;5048683;28;20073;-86
2023/08/30 10:38:30;;;;;;;7.63;6.50;;;16.00;99.90;;;;;;5047479;28;20041;-86
2023/08/30 10:41:05;;;;;;;11.90;6.85;;;15.70;99.90;;;;;;5046369;28;20060;-86
2023/08/30 10:43:34;;;;;;;6.60;5.80;;;15.70;99.90;;;;;;5029119;28;20059;-84
2023/08/30 10:46:11;;;;;;;6.28;5.53;;;15.80;99.90;;;;;;5024860;28;20040;-85
2023/08/30 10:48:38;;;;;;;6.82;6.13;;;15.80;99.90;;;;;;5045341;28;20045;-84
2023/08/30 10:51:07;;;;;;;6.05;4.95;;;16.80;99.90;;;;;;5025413;28;20071;-86
2023/08/30 10:53:32;;;;;;;6.25;4.43;;;15.90;99.90;;;;;;5044107;28;20389;-86
2023/08/30 10:56:10;;;;;;;4.97;4.15;;;16.00;99.90;;;;;;5030348;28;20045;-86
2023/08/30 10:58:43;;;;;;;6.45;4.38;;;16.10;99.90;;;;;;5057160;28;20061;-84
2023/08/30 11:01:12;;;;;;;4.90;3.80;;;16.10;99.90;;;;;;5054106;28;20102;-84
2023/08/30 11:03:41;;;;;;;4.00;3.17;;;16.10;99.90;;;;;;5048907;28;20084;-82
2023/08/30 11:06:07;;;;;;;4.25;2.95;;;16.10;99.90;;;;;;5045707;28;20063;-84
2023/08/30 11:08:35;;;;;;;4.20;3.05;;;16.20;99.90;;;;;;5044071;28;20033;-86
2023/08/30 11:11:08;;;;;;;2.90;2.58;;;16.20;99.90;;;;;;5029863;28;20048;-84
2023/08/30 11:13:34;;;;;;;4.07;2.43;;;16.30;99.90;;;;;;5028255;28;20384;-84
2023/08/30 11:16:04;;;;;;;4.78;2.83;;;16.30;99.90;;;;;;5030550;28;20386;-82
2023/08/30 11:18:30;;;;;;;3.58;2.78;;;16.30;99.90;;;;;;5049673;28;20029;-82
2023/08/30 11:21:01;;;;;;;3.75;3.35;;;16.30;99.90;;;;;;5048881;28;20041;-81
2023/08/30 11:23:26;;;;;;;3.67;3.33;;;16.40;99.90;;;;;;5048655;28;20048;-81
2023/08/30 11:25:52;;;;;;;3.10;2.80;;;16.40;99.90;;;;;;5029541;28;20037;-81
2023/08/30 11:28:23;;;;;;;3.72;3.25;;;16.30;99.90;;;;;;5049788;28;20049;-81
2023/08/30 11:30:55;;;;;;;4.18;3.28;;;16.30;99.90;;;;;;5037247;28;20057;-85
2023/08/30 11:33:21;;;;;;;4.63;4.22;;;16.30;99.90;;;;;;5048737;28;20053;-84
2023/08/30 11:35:51;;;;;;;5.80;4.53;;;16.30;99.90;;;;;;5046900;28;20107;-81
2023/08/30 11:38:19;;;;;;;6.35;4.20;;;16.30;99.90;;;;;;5042066;28;20049;-81
2023/08/30 11:40:45;;;;;;;6.05;4.55;;;16.40;99.90;;;;;;5046988;28;20551;-83
2023/08/30 11:43:11;;;;;;;5.00;4.30;;;16.70;99.90;;;;;;5031690;28;20094;-83
2023/08/30 11:45:37;;;;;;;6.30;4.75;;;16.40;99.90;;;;;;5013935;28;20033;-83
2023/08/30 11:48:03;;;;;;;7.22;4.38;;;16.40;99.90;;;;;;5046383;28;20111;-83
2023/08/30 11:50:30;;;;;;;4.63;4.22;;;16.40;99.90;;;;;;5050048;28;20111;-85
2023/08/30 11:52:56;;;;;;;4.05;3.58;;;16.50;99.90;;;;;;5053733;28;20044;-83
2023/08/30 11:55:22;;;;;;;5.10;4.18;;;16.40;99.90;;;;;;5051975;28;20408;-84
2023/08/30 11:57:51;;;;;;;4.53;3.50;;;16.30;99.90;;;;;;5056042;28;20047;-85
2023/08/30 12:00:19;;;;;;;4.30;3.88;;;16.30;99.90;;;;;;5039222;28;20048;-84
2023/08/30 12:02:46;;;;;;;5.55;5.03;;;16.30;99.90;;;;;;5058135;28;20037;-83
2023/08/30 12:05:13;;;;;;;5.72;5.13;;;16.30;99.90;;;;;;5053773;28;20041;-84
2023/08/30 12:07:40;;;;;;;8.10;4.90;;;16.30;99.90;;;;;;5056540;28;20404;-83
2023/08/30 12:10:10;;;;;;;5.82;4.38;;;16.30;99.90;;;;;;5053116;28;20076;-83
2023/08/30 12:12:36;;;;;;;4.85;4.30;;;16.30;99.90;;;;;;5055724;28;20104;-86
2023/08/30 12:15:08;;;;;;;6.70;4.72;;;16.20;99.90;;;;;;5038292;28;20041;-86
2023/08/30 12:17:37;;;;;;;6.47;4.93;;;16.20;99.90;;;;;;5055353;28;20473;-86
2023/08/30 12:20:03;;;;;;;7.00;6.03;;;16.20;99.90;;;;;;5055001;28;20040;-85
2023/08/30 12:22:40;;;;;;;5.90;5.30;;;16.10;99.90;;;;;;5054993;28;20052;-84
2023/08/30 12:25:22;;;;;;;6.45;5.63;;;16.60;99.90;;;;;;5054034;28;20048;-85
2023/08/30 12:27:48;;;;;;;6.80;6.13;;;16.00;99.90;;;;;;5048643;28;20048;-87
2023/08/30 12:30:19;;;;;;;12.43;6.38;;;15.90;99.90;;;;;;5056807;28;20044;-85
2023/08/30 12:32:45;;;;;;;7.55;6.63;;;15.90;99.90;;;;;;5053057;28;20041;-88
2023/08/30 12:35:11;;;;;;;7.32;6.00;;;15.90;99.90;;;;;;5050718;28;20067;-88
2023/08/30 12:37:37;;;;;;;6.28;5.70;;;15.80;99.90;;;;;;5056156;28;20036;-89